Time;durP1;ratioP1;P1;durP2;ratioP2;P2;SDS_P1;SDS_P2;PMS_P1;PMS_P2;Temp;Humidity;BMP_temperature;BMP_pressure;BME280_temperature;BME280_humidity;BME280_pressure;Samples;Min_cycle;Max_cycle;Signal;HPM_P1;HPM_P2
2022/07/01 00:00:41;;;;;;;3.40;1.00;;;;;;;28.92;48.40;100308.78;4989187;28;20030;-71
2022/07/01 00:03:06;;;;;;;4.65;0.88;;;;;;;28.92;48.32;100313.34;4989867;28;20049;-71
2022/07/01 00:05:32;;;;;;;3.95;1.02;;;;;;;28.93;48.07;100304.22;4989366;28;20076;-71
2022/07/01 00:07:57;;;;;;;5.15;1.33;;;;;;;28.92;48.12;100308.00;4989529;28;20406;-71
2022/07/01 00:10:23;;;;;;;3.35;0.80;;;;;;;28.92;48.29;100313.34;4988942;28;20042;-71
2022/07/01 00:12:48;;;;;;;4.15;0.95;;;;;;;28.93;48.32;100320.31;4989513;28;20073;-71
2022/07/01 00:15:14;;;;;;;5.10;1.08;;;;;;;28.92;48.21;100321.41;4989934;28;20023;-70
2022/07/01 00:17:40;;;;;;;3.42;0.63;;;;;;;28.92;47.97;100322.19;4989399;28;20085;-71
2022/07/01 00:20:07;;;;;;;4.90;1.00;;;;;;;28.93;48.16;100325.69;4992269;28;20023;-71
2022/07/01 00:22:34;;;;;;;6.55;1.00;;;;;;;28.94;48.21;100324.63;4997142;28;20367;-70
2022/07/01 00:24:59;;;;;;;4.28;0.77;;;;;;;28.93;47.86;100329.19;4989284;28;20030;-71
2022/07/01 00:27:25;;;;;;;4.20;1.13;;;;;;;28.93;47.70;100331.06;4989207;28;20022;-71
2022/07/01 00:29:51;;;;;;;6.32;1.05;;;;;;;28.93;48.10;100331.06;4989042;28;20486;-71
2022/07/01 00:32:16;;;;;;;5.07;0.80;;;;;;;28.92;48.13;100327.56;4989239;28;20114;-71
2022/07/01 00:34:42;;;;;;;3.40;1.23;;;;;;;28.91;48.18;100333.19;4989532;28;20352;-71
2022/07/01 00:37:08;;;;;;;4.55;0.80;;;;;;;28.91;47.83;100333.19;4989424;28;20058;-71
2022/07/01 00:39:35;;;;;;;2.75;0.85;;;;;;;28.89;48.13;100333.47;4987847;28;20040;-71
2022/07/01 00:42:03;;;;;;;4.72;1.33;;;;;;;28.88;47.74;100328.38;4989222;28;20522;-71
2022/07/01 00:44:29;;;;;;;3.42;1.05;;;;;;;28.86;47.67;100328.63;4988739;28;20373;-71
2022/07/01 00:46:56;;;;;;;2.92;0.60;;;;;;;28.86;47.61;100335.88;4988876;28;20026;-71
2022/07/01 00:49:21;;;;;;;6.57;0.90;;;;;;;28.85;48.01;100328.91;4988170;28;20038;-71
2022/07/01 00:51:47;;;;;;;5.53;1.13;;;;;;;28.82;48.02;100332.16;4989157;28;20162;-71
2022/07/01 00:54:13;;;;;;;3.97;1.25;;;;;;;28.80;48.03;100324.34;4988216;28;20037;-71
2022/07/01 00:56:39;;;;;;;3.85;0.95;;;;;;;28.78;47.57;100323.00;4989166;28;20026;-71
2022/07/01 00:59:05;;;;;;;5.53;0.85;;;;;;;28.77;47.39;100318.72;4989205;28;20391;-71
2022/07/01 01:01:30;;;;;;;4.72;1.15;;;;;;;28.78;47.86;100315.75;4988687;28;20142;-71
2022/07/01 01:03:56;;;;;;;5.13;0.98;;;;;;;28.79;47.75;100316.56;4988196;28;20057;-71
2022/07/01 01:06:21;;;;;;;3.40;0.80;;;;;;;28.80;47.85;100310.94;4988510;28;20054;-71
2022/07/01 01:08:48;;;;;;;4.68;1.00;;;;;;;28.82;47.83;100318.75;4988251;28;20030;-71
2022/07/01 01:11:15;;;;;;;4.72;0.77;;;;;;;28.81;47.54;100311.75;4988567;28;20064;-71
2022/07/01 01:13:41;;;;;;;3.92;1.05;;;;;;;28.82;47.48;100313.38;4988384;28;20035;-71
2022/07/01 01:16:08;;;;;;;3.33;0.90;;;;;;;28.82;47.48;100308.81;4986716;28;20771;-71
2022/07/01 01:18:34;;;;;;;5.13;1.02;;;;;;;28.83;47.42;100312.31;4988195;28;20026;-71
2022/07/01 01:21:00;;;;;;;4.50;1.20;;;;;;;28.84;47.47;100311.22;4988344;28;20046;-71
2022/07/01 01:23:25;;;;;;;4.38;0.88;;;;;;;28.83;47.17;100310.41;4990091;28;20026;-71
2022/07/01 01:25:51;;;;;;;3.47;1.13;;;;;;;28.83;47.57;100304.28;4985183;28;20054;-70
2022/07/01 01:28:16;;;;;;;5.18;0.90;;;;;;;28.84;47.51;100305.84;4988996;28;20030;-71
2022/07/01 01:30:42;;;;;;;4.00;1.42;;;;;;;28.84;47.24;100300.47;4989932;28;20034;-70
2022/07/01 01:33:08;;;;;;;5.07;0.82;;;;;;;28.84;47.73;100300.47;4987706;28;20042;-71
2022/07/01 01:35:34;;;;;;;4.75;0.80;;;;;;;28.85;47.48;100299.41;4989398;28;20637;-70
2022/07/01 01:38:00;;;;;;;3.78;0.98;;;;;;;28.83;47.35;100298.91;4987239;28;20053;-71
2022/07/01 01:40:26;;;;;;;6.72;0.88;;;;;;;28.81;47.75;100298.34;4986796;28;20497;-71
2022/07/01 01:42:52;;;;;;;4.18;1.00;;;;;;;28.79;47.23;100292.44;4988239;28;20545;-71
2022/07/01 01:45:17;;;;;;;4.90;0.90;;;;;;;28.77;47.11;100289.22;4989563;28;20045;-71
2022/07/01 01:47:43;;;;;;;3.15;0.77;;;;;;;28.77;47.56;100284.66;4988318;28;20030;-70
2022/07/01 01:50:12;;;;;;;6.15;0.80;;;;;;;28.76;47.67;100283.06;4987403;28;20034;-71
2022/07/01 01:52:38;;;;;;;5.20;0.95;;;;;;;28.77;47.74;100278.50;4987630;28;20041;-70
2022/07/01 01:55:04;;;;;;;2.47;0.65;;;;;;;28.77;47.23;100278.50;4985627;28;20038;-71
2022/07/01 01:57:30;;;;;;;5.57;1.20;;;;;;;28.76;47.44;100271.53;4970861;28;20469;-71
2022/07/01 01:59:56;;;;;;;6.22;0.95;;;;;;;28.76;47.67;100266.16;4988744;28;20092;-71
2022/07/01 02:02:22;;;;;;;3.95;0.93;;;;;;;28.75;47.31;100265.38;4986830;28;20070;-71
2022/07/01 02:04:47;;;;;;;2.55;0.90;;;;;;;28.74;47.42;100259.19;4983080;28;20415;-71
2022/07/01 02:07:13;;;;;;;3.40;0.65;;;;;;;28.74;47.59;100259.19;4968228;28;20433;-72
2022/07/01 02:09:38;;;;;;;3.60;0.93;;;;;;;28.75;47.30;100265.38;4968893;28;20182;-71
2022/07/01 02:12:04;;;;;;;1.73;0.80;;;;;;;28.77;47.33;100262.41;4966998;28;20102;-71
2022/07/01 02:14:29;;;;;;;2.63;0.60;;;;;;;28.77;47.72;100257.06;4969735;28;20050;-71
2022/07/01 02:16:55;;;;;;;3.28;1.05;;;;;;;28.77;47.72;100260.53;4971438;28;20118;-71
2022/07/01 02:19:20;;;;;;;4.65;0.95;;;;;;;28.79;47.56;100265.63;4970925;28;20043;-71
2022/07/01 02:21:46;;;;;;;3.13;0.90;;;;;;;28.78;47.42;100272.06;4971919;28;20027;-71
2022/07/01 02:24:11;;;;;;;2.42;0.60;;;;;;;28.79;47.08;100265.63;4971636;28;20042;-71
2022/07/01 02:26:36;;;;;;;3.03;0.75;;;;;;;28.79;47.44;100268.31;4972626;28;20041;-70
2022/07/01 02:29:03;;;;;;;4.60;0.70;;;;;;;28.81;47.15;100275.00;4969745;28;20023;-71
2022/07/01 02:31:28;;;;;;;2.15;0.50;;;;;;;28.81;47.13;100284.94;4974264;28;20426;-71
2022/07/01 02:33:53;;;;;;;5.20;0.70;;;;;;;28.80;47.03;100281.44;4971057;28;20033;-71
2022/07/01 02:36:19;;;;;;;3.03;0.93;;;;;;;28.79;47.01;100289.75;4970682;28;20035;-70
2022/07/01 02:38:44;;;;;;;8.25;1.10;;;;;;;28.76;46.75;100288.41;4970512;28;20109;-71
2022/07/01 02:41:10;;;;;;;3.08;0.60;;;;;;;28.74;46.72;100301.28;4970208;28;20058;-71
2022/07/01 02:43:36;;;;;;;4.10;0.90;;;;;;;28.71;47.19;100299.13;4971800;28;20517;-70
2022/07/01 02:46:01;;;;;;;2.83;0.80;;;;;;;28.70;46.86;100300.22;4971611;28;20027;-71
2022/07/01 02:48:27;;;;;;;9.00;1.30;;;;;;;28.67;46.73;100296.19;4970580;28;20518;-70
2022/07/01 02:50:53;;;;;;;4.00;0.75;;;;;;;28.66;46.89;100299.13;4971545;28;20026;-70
2022/07/01 02:53:18;;;;;;;7.22;1.00;;;;;;;28.64;47.13;100307.44;4968802;28;20042;-70
2022/07/01 02:55:44;;;;;;;7.82;1.17;;;;;;;28.61;46.90;100299.13;4969828;28;20141;-70
2022/07/01 02:58:09;;;;;;;7.70;1.55;;;;;;;28.58;46.99;100300.47;4971292;28;20027;-71
2022/07/01 03:00:35;;;;;;;4.80;0.98;;;;;;;28.56;46.99;100309.84;4974681;28;20031;-72
2022/07/01 03:03:00;;;;;;;3.97;0.90;;;;;;;28.55;47.13;100302.88;4971106;28;20089;-71
2022/07/01 03:05:26;;;;;;;5.07;1.10;;;;;;;28.54;46.60;100302.06;4978558;28;20089;-71
2022/07/01 03:07:51;;;;;;;3.80;0.82;;;;;;;28.53;46.60;100305.81;4988793;28;20086;-71
2022/07/01 03:10:16;;;;;;;4.35;0.90;;;;;;;28.52;46.67;100306.91;4988490;28;20030;-70
2022/07/01 03:12:42;;;;;;;3.72;0.82;;;;;;;28.50;46.85;100298.31;4990864;28;20097;-70
2022/07/01 03:15:11;;;;;;;2.50;0.82;;;;;;;28.52;46.64;100300.72;4992461;28;20042;-70
2022/07/01 03:17:39;;;;;;;5.45;1.05;;;;;;;28.53;47.12;100300.47;4990902;28;20061;-71
2022/07/01 03:20:07;;;;;;;5.78;0.60;;;;;;;28.54;47.14;100302.06;4992174;28;20068;-70
2022/07/01 03:22:32;;;;;;;3.65;0.77;;;;;;;28.55;46.93;100295.63;4987756;28;20101;-71
2022/07/01 03:24:58;;;;;;;3.45;0.77;;;;;;;28.57;46.96;100300.75;4988919;28;20042;-71
2022/07/01 03:27:24;;;;;;;5.53;0.98;;;;;;;28.57;46.94;100306.91;4989829;28;20048;-71
2022/07/01 03:29:50;;;;;;;3.78;1.13;;;;;;;28.59;46.56;100318.16;4988278;28;20493;-71
2022/07/01 03:32:16;;;;;;;5.45;1.10;;;;;;;28.59;46.54;100323.53;4991653;28;20744;-71
2022/07/01 03:34:45;;;;;;;4.78;0.90;;;;;;;28.60;46.63;100317.09;4990889;28;20373;-71
2022/07/01 03:37:12;;;;;;;1.90;0.73;;;;;;;28.60;46.99;100313.59;4987819;28;20085;-70
2022/07/01 03:39:39;;;;;;;6.03;1.10;;;;;;;28.58;46.86;100329.94;4989766;28;20408;-71
2022/07/01 03:42:05;;;;;;;3.83;1.17;;;;;;;28.54;47.31;100328.06;4988720;28;20381;-71
2022/07/01 03:44:31;;;;;;;5.85;1.40;;;;;;;28.51;47.19;100324.03;4989919;28;20053;-71
2022/07/01 03:46:56;;;;;;;4.72;1.65;;;;;;;28.46;47.26;100321.34;4993024;28;20334;-71
2022/07/01 03:49:22;;;;;;;3.75;0.70;;;;;;;28.45;47.29;100326.97;4989596;28;20053;-70
2022/07/01 03:51:49;;;;;;;4.65;1.00;;;;;;;28.43;47.59;100324.56;4987602;28;20394;-70
2022/07/01 03:54:30;;;;;;;5.07;1.30;;;;;;;28.41;47.30;100324.03;4987565;28;20050;-71
2022/07/01 03:57:02;;;;;;;4.32;1.02;;;;;;;28.40;47.33;100322.41;4988348;28;20042;-71
2022/07/01 03:59:30;;;;;;;5.18;0.90;;;;;;;28.41;47.55;100329.38;4987071;28;20540;-70
2022/07/01 04:01:56;;;;;;;4.40;1.10;;;;;;;28.40;47.38;100335.81;4991475;28;20041;-70
2022/07/01 04:04:23;;;;;;;5.82;0.80;;;;;;;28.39;47.24;100336.88;4991435;28;20034;-71
2022/07/01 04:06:49;;;;;;;3.03;0.82;;;;;;;28.39;47.25;100326.97;4969959;28;20440;-70
2022/07/01 04:09:16;;;;;;;6.45;0.85;;;;;;;28.40;47.04;100327.78;4969943;28;20149;-70
2022/07/01 04:11:45;;;;;;;4.82;0.80;;;;;;;28.40;47.07;100331.25;4967215;28;20190;-71
2022/07/01 04:14:11;;;;;;;4.22;0.82;;;;;;;28.40;47.34;100333.13;4969807;28;20030;-70
2022/07/01 04:16:38;;;;;;;6.70;0.90;;;;;;;28.40;47.39;100333.94;4967747;28;20031;-71
2022/07/01 04:19:04;;;;;;;2.03;0.60;;;;;;;28.40;47.73;100333.13;4969479;28;20093;-71
2022/07/01 04:24:14;;;;;;;8.48;0.73;;;;;;;28.37;47.49;100328.31;4968676;28;20053;-71
2022/07/01 04:26:40;;;;;;;3.88;1.15;;;;;;;28.36;47.23;100337.41;4969443;28;20030;-70
2022/07/01 04:29:07;;;;;;;5.80;1.15;;;;;;;28.34;47.51;100336.91;4971206;28;20444;-70
2022/07/01 04:31:36;;;;;;;2.40;0.80;;;;;;;28.32;47.84;100336.34;4971362;28;20035;-70
2022/07/01 04:34:02;;;;;;;6.00;1.08;;;;;;;28.31;47.59;100337.44;4969811;28;20038;-70
2022/07/01 04:36:27;;;;;;;3.25;0.93;;;;;;;28.27;47.69;100331.78;4968781;28;20038;-70
2022/07/01 04:38:53;;;;;;;2.13;0.60;;;;;;;28.29;47.99;100342.25;4967787;28;20098;-71
2022/07/01 04:44:03;;;;;;;3.53;0.90;;;;;;;28.28;47.86;100346.00;4971621;28;20080;-71
2022/07/01 04:46:29;;;;;;;6.85;0.80;;;;;;;28.28;47.92;100340.63;4969696;28;20482;-71
2022/07/01 04:48:54;;;;;;;7.00;1.10;;;;;;;28.27;47.82;100344.38;4967827;28;20041;-71
2022/07/01 04:51:20;;;;;;;5.35;0.85;;;;;;;28.25;48.03;100351.88;4971343;28;20034;-71
2022/07/01 04:53:45;;;;;;;4.95;0.95;;;;;;;28.13;47.93;100356.63;4967879;28;20031;-71
2022/07/01 04:56:11;;;;;;;11.80;1.48;;;;;;;28.08;48.61;100358.22;4969513;28;20455;-71
2022/07/01 04:58:36;;;;;;;5.85;1.52;;;;;;;28.06;48.65;100357.66;4968484;28;20047;-71
2022/07/01 05:01:01;;;;;;;8.48;1.48;;;;;;;28.03;48.58;100355.50;4968590;28;20407;-71
2022/07/01 05:03:27;;;;;;;5.30;1.10;;;;;;;27.95;49.13;100364.03;4969457;28;20046;-71
2022/07/01 05:05:52;;;;;;;6.32;0.95;;;;;;;27.93;48.81;100344.75;4981913;28;20052;-71
2022/07/01 05:08:18;;;;;;;4.03;0.95;;;;;;;27.92;48.86;100359.22;4988943;28;20031;-71
2022/07/01 05:10:43;;;;;;;4.68;1.05;;;;;;;27.88;49.03;100352.78;4989013;28;20034;-71
2022/07/01 05:13:08;;;;;;;4.97;1.13;;;;;;;27.89;49.03;100345.53;4991005;28;20030;-72
2022/07/01 05:15:34;;;;;;;7.00;1.05;;;;;;;27.90;48.90;100350.63;4988688;28;20034;-71
2022/07/01 05:23:28;;;;;;;3.63;0.90;;;;;;;27.95;48.00;100344.50;4987667;28;20497;-71
2022/07/01 05:25:53;;;;;;;5.25;1.02;;;;;;;27.99;47.92;100338.34;4988461;28;20046;-71
2022/07/01 05:28:19;;;;;;;5.88;1.40;;;;;;;28.00;47.71;100339.97;4987754;28;20042;-71
2022/07/01 05:30:44;;;;;;;7.60;1.40;;;;;;;28.02;47.92;100345.88;4988771;28;20069;-71
2022/07/01 05:33:10;;;;;;;3.78;0.90;;;;;;;28.02;47.95;100348.53;4988356;28;20442;-71
2022/07/01 05:35:36;;;;;;;9.48;1.55;;;;;;;28.04;48.01;100346.41;4988452;28;20026;-71
2022/07/01 05:38:01;;;;;;;5.72;1.17;;;;;;;28.06;47.66;100354.19;4988461;28;20346;-71
2022/07/01 05:40:27;;;;;;;5.25;0.98;;;;;;;28.04;47.61;100354.44;4988148;28;20434;-71
2022/07/01 05:42:52;;;;;;;3.95;0.75;;;;;;;28.04;47.84;100357.13;4987631;28;20406;-71
2022/07/01 05:45:18;;;;;;;4.28;0.77;;;;;;;28.05;47.74;100347.22;4988793;28;20026;-71
2022/07/01 05:47:43;;;;;;;6.03;0.93;;;;;;;28.07;47.95;100351.25;4988656;28;20034;-71
2022/07/01 05:50:09;;;;;;;7.20;1.02;;;;;;;28.09;47.65;100356.34;4988868;28;20545;-71
2022/07/01 05:52:34;;;;;;;4.18;0.98;;;;;;;28.10;47.82;100355.28;4991638;28;20117;-71
2022/07/01 05:55:00;;;;;;;3.78;0.70;;;;;;;28.11;47.72;100345.38;4992685;28;20026;-71
2022/07/01 05:57:26;;;;;;;6.22;1.05;;;;;;;28.11;47.71;100346.16;4991479;28;20085;-71
2022/07/01 05:59:51;;;;;;;6.70;1.00;;;;;;;28.12;47.79;100344.28;4992282;28;20057;-71
2022/07/01 06:02:17;;;;;;;7.00;0.70;;;;;;;28.11;47.97;100334.66;4992400;28;20030;-71
2022/07/01 06:04:43;;;;;;;8.93;1.00;;;;;;;28.05;48.32;100336.50;4991754;28;20054;-71
2022/07/01 06:07:10;;;;;;;6.35;1.05;;;;;;;28.02;48.39;100331.66;4991895;28;20057;-71
2022/07/01 06:09:38;;;;;;;7.40;1.00;;;;;;;28.04;48.70;100326.84;4992088;28;20050;-71
2022/07/01 06:12:05;;;;;;;4.13;0.70;;;;;;;28.05;48.62;100325.78;4992088;28;20181;-71
2022/07/01 06:14:31;;;;;;;4.45;1.02;;;;;;;28.05;48.60;100318.56;4991312;28;20034;-71
2022/07/01 06:16:56;;;;;;;10.05;1.48;;;;;;;28.06;48.83;100322.84;4991718;28;20475;-72
2022/07/01 06:19:22;;;;;;;7.13;1.25;;;;;;;28.08;48.85;100315.34;4991667;28;20035;-71
2022/07/01 06:21:47;;;;;;;4.90;0.65;;;;;;;28.08;48.79;100315.34;4991825;28;20391;-71
2022/07/01 06:24:13;;;;;;;6.85;1.23;;;;;;;28.08;49.00;100314.56;4991731;28;20394;-70
2022/07/01 06:26:39;;;;;;;5.03;0.90;;;;;;;28.09;49.23;100319.66;4991675;28;20356;-71
2022/07/01 06:29:05;;;;;;;4.28;0.70;;;;;;;28.11;48.94;100318.59;4990737;28;20080;-71
2022/07/01 06:31:33;;;;;;;5.15;1.05;;;;;;;28.12;49.01;100320.19;4991578;28;20027;-71
2022/07/01 06:33:58;;;;;;;6.72;1.00;;;;;;;28.12;49.36;100314.84;4992343;28;20029;-71
2022/07/01 06:36:23;;;;;;;6.38;0.70;;;;;;;28.11;49.33;100311.34;4991284;28;20023;-71
2022/07/01 06:38:49;;;;;;;4.65;0.90;;;;;;;28.12;49.31;100309.47;4991781;28;20030;-71
2022/07/01 06:41:29;;;;;;;9.02;1.17;;;;;;;28.12;49.04;100310.28;4991350;28;20034;-71
2022/07/01 06:43:56;;;;;;;6.85;1.10;;;;;;;28.12;49.15;100306.81;4989657;28;20037;-71
2022/07/01 06:46:22;;;;;;;4.10;1.17;;;;;;;28.13;49.52;100311.09;4991089;28;20030;-71
2022/07/01 06:48:48;;;;;;;6.72;0.88;;;;;;;28.16;49.33;100310.56;4990938;28;20034;-71
2022/07/01 06:51:14;;;;;;;3.78;0.82;;;;;;;28.17;49.07;100312.97;4990914;28;20561;-72
2022/07/01 06:53:40;;;;;;;4.47;0.82;;;;;;;28.19;48.92;100307.34;4991142;28;20049;-71
2022/07/01 06:56:06;;;;;;;4.00;1.20;;;;;;;28.20;49.24;100317.00;4990789;28;20557;-71
2022/07/01 06:58:31;;;;;;;9.02;1.00;;;;;;;28.20;49.09;100307.09;4990073;28;20042;-71
2022/07/01 07:00:57;;;;;;;4.50;0.75;;;;;;;28.22;49.04;100309.53;4990531;28;20026;-71
2022/07/01 07:03:23;;;;;;;4.45;0.70;;;;;;;28.21;49.22;100298.03;4988994;28;20041;-71
2022/07/01 07:05:48;;;;;;;2.80;0.70;;;;;;;28.22;49.16;100304.19;4989226;28;20077;-71
2022/07/01 07:08:14;;;;;;;5.93;0.80;;;;;;;28.22;49.07;100299.63;4990548;28;20446;-71
2022/07/01 07:10:40;;;;;;;2.17;0.50;;;;;;;28.24;49.61;100296.69;4990866;28;20040;-70
2022/07/01 07:13:05;;;;;;;5.78;0.75;;;;;;;28.25;49.34;100295.63;4990667;28;20431;-70
2022/07/01 07:15:31;;;;;;;4.55;0.90;;;;;;;28.25;49.57;100306.34;4989518;28;20043;-70
2022/07/01 07:17:57;;;;;;;8.75;1.20;;;;;;;28.26;49.82;100297.22;4990666;28;20038;-70
2022/07/01 07:20:24;;;;;;;8.73;1.27;;;;;;;28.31;50.44;100299.91;4990341;28;20066;-70
2022/07/01 07:22:49;;;;;;;5.10;1.20;;;;;;;28.34;51.24;100300.19;4991320;28;20458;-70
2022/07/01 07:25:15;;;;;;;9.45;1.77;;;;;;;28.39;51.54;100300.16;4989401;28;20037;-70
2022/07/01 07:27:40;;;;;;;7.95;1.10;;;;;;;28.42;51.17;100290.81;4989536;28;20117;-70
2022/07/01 07:30:06;;;;;;;10.23;1.52;;;;;;;28.41;51.00;100294.56;4990110;28;20040;-70
2022/07/01 07:32:32;;;;;;;9.20;1.10;;;;;;;28.41;51.62;100289.19;4991057;28;20121;-70
2022/07/01 07:34:57;;;;;;;3.70;0.60;;;;;;;28.40;51.57;100292.94;4989398;28;20094;-70
2022/07/01 07:37:22;;;;;;;5.30;1.08;;;;;;;28.39;51.39;100294.00;4990002;28;20060;-69
2022/07/01 07:39:48;;;;;;;4.97;0.80;;;;;;;28.36;50.76;100291.88;4990523;28;20394;-70
2022/07/01 07:42:13;;;;;;;3.88;0.90;;;;;;;28.36;50.19;100283.81;4990428;28;20487;-70
2022/07/01 07:44:39;;;;;;;5.80;1.02;;;;;;;28.34;50.35;100276.09;4990610;28;20077;-69
2022/07/01 07:47:04;;;;;;;6.40;1.25;;;;;;;28.35;50.20;100276.88;4990131;28;20070;-70
2022/07/01 07:49:29;;;;;;;12.43;0.98;;;;;;;28.35;49.44;100277.69;4990334;28;20054;-70
2022/07/01 07:51:55;;;;;;;5.28;1.05;;;;;;;28.35;49.40;100274.22;4990444;28;20023;-70
2022/07/01 07:54:21;;;;;;;8.52;1.05;;;;;;;28.37;49.34;100274.72;4989547;28;20026;-71
2022/07/01 07:56:46;;;;;;;5.43;1.15;;;;;;;28.37;49.38;100270.16;4979047;28;20058;-71
2022/07/01 07:59:12;;;;;;;7.43;1.23;;;;;;;28.38;49.00;100268.28;4986294;28;20090;-70
2022/07/01 08:01:38;;;;;;;4.05;0.80;;;;;;;28.37;49.56;100270.16;4989914;28;20033;-70
2022/07/01 08:04:03;;;;;;;3.08;0.85;;;;;;;28.38;49.67;100265.59;4989458;28;20026;-71
2022/07/01 08:06:28;;;;;;;5.15;0.88;;;;;;;28.40;49.66;100266.94;4989412;28;20510;-70
2022/07/01 08:08:54;;;;;;;9.10;0.80;;;;;;;28.41;49.36;100257.84;4989226;28;20034;-70
2022/07/01 08:11:20;;;;;;;7.93;1.15;;;;;;;28.43;49.67;100268.28;4989755;28;20034;-70
2022/07/01 08:13:45;;;;;;;4.30;0.80;;;;;;;28.46;49.57;100257.03;4988790;28;20278;-70
2022/07/01 08:16:11;;;;;;;6.93;1.33;;;;;;;28.47;49.65;100269.38;4988933;28;20042;-70
2022/07/01 08:18:36;;;;;;;7.22;1.60;;;;;;;28.49;49.82;100271.78;4989346;28;20152;-70
2022/07/01 08:21:02;;;;;;;5.40;0.95;;;;;;;28.47;49.93;100266.69;4989615;28;20032;-70
2022/07/01 08:23:28;;;;;;;5.20;1.42;;;;;;;28.47;50.27;100268.56;4989298;28;20070;-70
2022/07/01 08:25:53;;;;;;;6.03;1.52;;;;;;;28.48;50.50;100275.53;4985331;28;20078;-71
2022/07/01 08:28:19;;;;;;;5.28;1.35;;;;;;;28.47;50.48;100265.88;4989449;28;20037;-70
2022/07/01 08:30:44;;;;;;;8.30;1.50;;;;;;;28.48;50.64;100265.63;4988756;28;20442;-70
2022/07/01 08:33:11;;;;;;;8.75;1.67;;;;;;;28.49;50.38;100261.88;4989909;28;20110;-71
2022/07/01 08:35:37;;;;;;;5.05;1.33;;;;;;;28.50;50.37;100262.69;4989581;28;20022;-71
2022/07/01 08:38:03;;;;;;;6.47;1.27;;;;;;;28.49;50.11;100261.88;4990591;28;20064;-70
2022/07/01 08:40:30;;;;;;;8.23;1.27;;;;;;;28.50;50.13;100258.13;4991625;28;20467;-70
2022/07/01 08:43:00;;;;;;;7.80;1.80;;;;;;;28.50;49.95;100257.31;4991626;28;20041;-70
2022/07/01 08:45:28;;;;;;;9.25;1.60;;;;;;;28.50;49.53;100257.31;4975980;28;20026;-70
2022/07/01 08:47:57;;;;;;;4.25;1.27;;;;;;;28.53;48.60;100254.09;4990408;28;20041;-70
2022/07/01 08:50:24;;;;;;;7.00;1.45;;;;;;;28.53;48.89;100262.16;4987931;28;20551;-70
2022/07/01 08:52:50;;;;;;;8.27;1.20;;;;;;;28.53;48.33;100254.91;4985801;28;20034;-70
2022/07/01 08:55:16;;;;;;;8.85;1.58;;;;;;;28.53;48.49;100249.53;4986674;28;20037;-71
2022/07/01 08:57:41;;;;;;;4.30;0.95;;;;;;;28.52;48.61;100249.81;4986265;28;20354;-70
2022/07/01 09:00:08;;;;;;;6.40;1.45;;;;;;;28.54;48.13;100237.75;4985937;28;20532;-70
2022/07/01 09:02:57;;;;;;;5.85;1.45;;;;;;;28.55;48.35;100239.38;4985725;28;20499;-70
2022/07/01 09:05:24;;;;;;;13.50;1.38;;;;;;;28.58;48.42;100233.47;4991500;28;20054;-70
2022/07/01 09:07:56;;;;;;;7.47;1.45;;;;;;;28.62;48.27;100229.19;4978692;28;20521;-69
2022/07/01 09:10:22;;;;;;;16.20;2.15;;;;;;;28.65;48.17;100233.19;4978755;28;20557;-70
2022/07/01 09:12:48;;;;;;;5.13;0.80;;;;;;;28.68;47.79;100232.66;4985285;28;20039;-71
2022/07/01 09:15:25;;;;;;;5.63;1.17;;;;;;;28.68;47.48;100225.44;4986073;28;20081;-70
2022/07/01 09:17:55;;;;;;;7.00;1.60;;;;;;;28.72;47.34;100228.38;4987610;28;20387;-70
2022/07/01 09:20:24;;;;;;;7.10;1.00;;;;;;;28.76;47.04;100220.59;4986689;28;20109;-70
2022/07/01 09:23:04;;;;;;;5.35;0.93;;;;;;;28.79;46.35;100220.84;4985806;28;20038;-70
2022/07/01 09:25:32;;;;;;;7.20;1.58;;;;;;;28.83;46.65;100223.84;4988244;28;20482;-70
2022/07/01 09:28:05;;;;;;;7.32;1.35;;;;;;;28.86;46.54;100209.88;4988224;28;20026;-71
2022/07/01 09:30:30;;;;;;;10.27;1.42;;;;;;;28.87;46.32;100212.28;4987923;28;20391;-70
2022/07/01 09:33:10;;;;;;;5.57;1.23;;;;;;;28.87;45.91;100208.78;4988521;28;20030;-71
2022/07/01 09:35:37;;;;;;;9.13;1.73;;;;;;;28.89;45.75;100203.97;4988608;28;20030;-70
2022/07/01 09:38:07;;;;;;;6.75;1.15;;;;;;;28.90;45.57;100200.19;4987859;28;20026;-71
2022/07/01 09:40:51;;;;;;;7.57;1.52;;;;;;;28.90;45.83;100194.84;4974616;28;20038;-70
2022/07/01 09:43:17;;;;;;;8.75;1.35;;;;;;;28.87;46.00;100192.69;4988411;28;20027;-71
2022/07/01 09:46:09;;;;;;;11.80;1.25;;;;;;;28.88;46.30;100199.66;4987064;28;20038;-71
2022/07/01 09:48:34;;;;;;;6.05;0.90;;;;;;;28.87;46.21;100195.38;4987579;28;20042;-71
2022/07/01 09:51:06;;;;;;;5.35;1.13;;;;;;;28.85;46.02;100198.34;4988304;28;20049;-71
2022/07/01 09:53:32;;;;;;;8.48;0.98;;;;;;;28.84;45.33;100203.97;4988356;28;20108;-71
2022/07/01 09:55:58;;;;;;;5.88;0.90;;;;;;;28.84;45.39;100198.59;4988724;28;20118;-71
2022/07/01 09:58:23;;;;;;;9.27;1.52;;;;;;;28.85;45.67;100192.97;4986213;28;20058;-71
2022/07/01 10:00:54;;;;;;;5.13;1.02;;;;;;;28.87;44.83;100198.88;4988395;28;20485;-71
2022/07/01 10:03:22;;;;;;;7.50;1.40;;;;;;;28.88;44.98;100210.41;4988563;28;20058;-71
2022/07/01 10:05:54;;;;;;;7.85;1.05;;;;;;;28.95;44.06;100200.19;4986842;28;20055;-71
2022/07/01 10:08:58;;;;;;;7.75;1.27;;;;;;;29.05;44.27;100200.16;4968725;28;20086;-71
2022/07/01 10:11:42;;;;;;;4.28;1.27;;;;;;;29.06;44.40;100201.78;4968603;28;20057;-71
2022/07/01 10:14:10;;;;;;;6.18;0.90;;;;;;;29.11;44.48;100193.72;4968358;28;20027;-71
2022/07/01 10:16:38;;;;;;;7.38;1.48;;;;;;;29.15;44.40;100193.97;4978087;28;20057;-71
2022/07/01 10:19:28;;;;;;;9.15;1.33;;;;;;;29.11;44.78;100196.41;4987816;28;20168;-70
2022/07/01 10:21:57;;;;;;;5.00;0.82;;;;;;;29.10;45.31;100199.34;4980021;28;20050;-70
2022/07/01 10:24:25;;;;;;;9.82;1.65;;;;;;;29.10;45.71;100202.03;4989786;28;20030;-70
2022/07/01 10:26:51;;;;;;;6.43;1.15;;;;;;;29.07;46.00;100203.38;4985028;28;20031;-71
2022/07/01 10:29:38;;;;;;;4.95;1.52;;;;;;;29.06;46.72;100209.81;4987959;28;20029;-71
2022/07/01 10:32:25;;;;;;;8.00;1.40;;;;;;;29.06;46.33;100197.22;4987050;28;20035;-71
2022/07/01 10:35:02;;;;;;;4.05;0.90;;;;;;;29.10;46.28;100194.78;4990833;28;20076;-70
2022/07/01 10:37:27;;;;;;;8.77;1.85;;;;;;;29.10;46.37;100200.16;4989939;28;20030;-70
2022/07/01 10:39:57;;;;;;;7.88;1.63;;;;;;;29.09;46.14;100197.75;4991763;28;20478;-71
2022/07/01 10:42:31;;;;;;;5.43;1.00;;;;;;;29.15;45.79;100193.97;4986284;28;20042;-71
2022/07/01 10:45:09;;;;;;;6.13;0.93;;;;;;;29.17;46.04;100192.63;4982130;28;20415;-70
2022/07/01 10:47:35;;;;;;;6.55;1.23;;;;;;;29.15;46.00;100200.13;4990484;28;20034;-70
2022/07/01 10:50:15;;;;;;;4.20;0.82;;;;;;;29.11;45.66;100199.09;4991164;28;20054;-71
2022/07/01 10:52:58;;;;;;;7.93;1.05;;;;;;;29.11;45.32;100203.63;4991023;28;20034;-71
2022/07/01 10:55:40;;;;;;;7.68;0.82;;;;;;;29.09;45.62;100211.16;4990487;28;20109;-71
2022/07/01 10:58:05;;;;;;;8.32;0.88;;;;;;;29.10;45.42;100208.19;4991084;28;20062;-71
2022/07/01 11:00:34;;;;;;;3.55;0.80;;;;;;;29.16;44.81;100214.34;4990369;28;20116;-70
2022/07/01 11:03:15;;;;;;;9.27;1.02;;;;;;;29.15;44.33;100215.44;4990847;28;20029;-71
2022/07/01 11:05:42;;;;;;;8.30;0.88;;;;;;;29.18;44.38;100214.88;4991453;28;20054;-70
2022/07/01 11:08:09;;;;;;;9.38;1.20;;;;;;;29.21;45.19;100220.50;4991006;28;20092;-71
2022/07/01 11:10:35;;;;;;;8.27;1.10;;;;;;;29.37;44.46;100215.88;4990912;28;20030;-70
2022/07/01 11:13:01;;;;;;;4.95;0.70;;;;;;;29.56;43.86;100216.09;4990951;28;20042;-70
2022/07/01 11:15:29;;;;;;;5.05;1.10;;;;;;;29.61;43.77;100203.47;4989449;28;20173;-70
2022/07/01 11:17:56;;;;;;;23.48;14.90;;;;;;;29.74;47.73;100212.00;4990394;28;20034;-70
2022/07/01 11:20:27;;;;;;;14.38;4.50;;;;;;;29.92;45.75;100201.38;4990632;28;20463;-70
2022/07/01 11:22:52;;;;;;;6.70;2.47;;;;;;;29.95;45.91;100208.88;4990764;28;20085;-70
2022/07/01 11:25:20;;;;;;;5.63;1.63;;;;;;;30.03;44.55;100207.53;4992266;28;20458;-69
2022/07/01 11:27:47;;;;;;;8.55;1.42;;;;;;;29.93;43.77;100189.56;4997806;28;20041;-70
2022/07/01 11:30:13;;;;;;;14.20;1.23;;;;;;;29.89;43.80;100198.44;4990308;28;20727;-71
2022/07/01 11:32:44;;;;;;;9.85;1.20;;;;;;;30.11;45.38;100195.38;4990423;28;20466;-71
2022/07/01 11:40:54;;;;;;;8.95;1.02;;;;;;;31.11;44.25;100224.31;4990152;28;20157;-70